SBOSBO SYD / YSSY
Speedbird OnlineSpeedbird Online SYD / YSSY

Sydney Kingsford Smith International Airport
04:40 11.1°C

Location Sydney, Australia
Latitude: -33.94609832763672
Longitude: 151.177001953125
Web Airport Website | Wikipedia
Altitude 6 Meter / 21 Feet
Distance 16,983 KM / 10,553 Miles
from London.
Time Zone UTC +10 hours (Australia/Sydney)
Codes IATA: SYD
ICAO: YSSY
Currency £1 equals AUD 1.66
Runways
RunwayLength (m)Surface
072530Asphalt
16L2438Asphalt
16R3962Asphalt
252530Asphalt
34L3962Asphalt
34R2438Asphalt
Radio
TypeDescriptionFrequency
APPAPP135.1
ATISATIS126.25
CLDCLNC DEL133.8
DEPDEP123
GNDGND121.7
OPSRAAF AIR OPS1123.5
TWRTWR120.5
Live ATC
METAR YSSY 241800Z 28007KT CAVOK 12/11 Q1014
TAF TAF YSSY 241703Z 2418/2600 25007KT CAVOK FM250100 14006KT CAVOK FM250500 05010KT CAVOK FM251200 29006KT 9999 FEW025
Weather As Of 25 Sep 2022 04:40
Description Clear sky
Wind 13 km/h from West (280°)
Cloud Cover 0%
Precipitation Rain: none, Snow: none
Sunrise 05:41
Sunset 17:52
Lounges The House (Open), International Terminal
Qantas International Business (TEMPORARILY CLOSED), Terminal 1
Qantas International First, Terminal 1
The Qantas Club (Domestic) , Terminal 3
Qantas Domestic Business , Terminal 3
Rotations During the last 90 days there were
63 flights from SIN
1 flights from SYD
61 flights to SIN
1 flights to SYD


© 2017-2022 Speedbird Online